Hang Nadim, Indonesia

9:20 AM WIB on October 02, 2014 (GMT +0700)
HANG NADIM | Change Station
CLOSE
Current Station
Airport
Location: HANG NADIM,
Elevation: 125 ft
Nearby Weather Stations

Elev 125 ft 1.12 °N, 104.12 °E | Updated 20 minutes ago

Partly Cloudy
Partly Cloudy
86 °F
Feels Like 97 °F
N
7
Wind Variable Wind from ESE

Today
High -- | Low -- °F
--% Chance of Precip.
Yesterday
High -- | Low -- °F
Precip. -- in
5:50 AM 5:56 PM
First Quarter, 53% visible
Pressure 29.89 in
Visibility 5.0 miles
Clouds Few 1400 ft
Heat Index 97 °F
Dew Point 77 °F
Humidity 74%
Rainfall 0.00 in
Snow Depth Not available.
UV 8 out of 12
Pollen Not available.
Air Quality Not available.
Flu Activity Not available.
METAR WIDD 020200Z 12006KT 8000 FEW014 30/25 Q1012 NOSIG

More Conditions Fewer Conditions

Pressure 29.89 in
Visibility 5.0 miles
Clouds Few 1400 ft
Heat Index 97 °F
Dew Point 77 °F
Humidity 74%
Rainfall 0.00 in
Snow Depth Not available.
UV 8 out of 12
Pollen Not available.
Air Quality Not available.
Flu Activity Not available.
METAR WIDD 020200Z 12006KT 8000 FEW014 30/25 Q1012 NOSIG

More Conditions Fewer Conditions

10-Day Weather Forecast

Almanac

Astronomy

Oct. 02, 2014 Rise Set
Actual Time 5:50 AM WIB 5:56 PM WIB
Civil Twilight 5:29 AM WIB 6:16 PM WIB
Nautical Twilight 5:05 AM WIB 6:40 PM WIB
Astronomical Twilight 4:41 AM WIB 7:04 PM WIB
Moon 12:22 PM WIB No Moon Set
Length of Visible Light 12h 47m
Length of Day
12h 05m
Tomorrow will be 0m 3s shorter.
First Quarter, 53% of the Moon is Illuminated
Oct 1
First Quarter
Oct 8
Full
Oct 15
Last Quarter
Oct 23
New
Oct 30
First Quarter

Yesterday's Extremes

Country Highs Country Lows

Community

WunderPhotos

Upload Photos

1,758,142 photos uploaded!

WunderBlogs® & News

Nearby

Snow Depth

Not available.

Earthquake Activity

City Distance Mag. Time & Date
No recent earthquake activity has been reported nearby.
Minimum magnitude displayed is 2.5.

Coastal Water Temperatures

Place Temperature
No Stations Reporting

Nearby Weather Stations